createdAt,value
2017-01-10T20:01:35.918Z,-0.88
2017-01-10T20:02:46.247Z,-0.89
2017-01-10T20:03:55.688Z,-0.96
2017-01-10T20:05:05.976Z,-0.95
2017-01-10T20:06:16.246Z,-1.03
2017-01-10T20:07:26.565Z,-0.89
2017-01-10T20:08:36.444Z,-0.95
2017-01-10T20:09:46.741Z,-1
2017-01-10T20:10:57.258Z,-0.91
2017-01-10T20:12:07.585Z,-0.94
2017-01-10T20:13:17.882Z,-0.95
2017-01-10T20:14:28.153Z,-0.88
2017-01-10T20:15:38.045Z,-1
2017-01-10T20:16:48.413Z,-0.92
2017-01-10T20:17:58.664Z,-1.07
2017-01-10T20:19:08.572Z,-1.1
2017-01-10T20:20:18.842Z,-1.07
2017-01-10T20:21:29.125Z,-1.07
2017-01-10T20:22:39.452Z,-0.95
2017-01-10T20:23:49.304Z,-1
2017-01-10T20:24:59.667Z,-1.07
2017-01-10T20:26:09.983Z,-0.95
2017-01-10T20:27:19.873Z,-0.94
2017-01-10T20:28:30.163Z,-0.92
2017-01-10T20:29:40.480Z,-0.96
2017-01-10T20:30:50.369Z,-1
2017-01-10T20:32:01.461Z,-0.89
2017-01-10T20:33:10.916Z,-0.96
2017-01-10T20:34:21.171Z,-0.95
2017-01-10T20:35:31.421Z,-1
2017-01-10T20:36:41.765Z,-0.89
2017-01-10T20:37:51.595Z,-0.84
2017-01-10T20:39:01.872Z,-0.92
2017-01-10T20:40:11.739Z,-0.91
2017-01-10T20:41:21.989Z,-0.88
2017-01-10T20:42:32.285Z,-0.87
2017-01-10T20:43:42.732Z,-0.89
2017-01-10T20:44:52.614Z,-0.84
2017-01-10T20:46:02.467Z,-0.87
2017-01-10T20:47:12.389Z,-0.95
2017-01-10T20:48:22.241Z,-0.84
2017-01-10T20:49:32.571Z,-0.89
2017-01-10T20:50:42.845Z,-0.85
2017-01-10T20:51:53.149Z,-0.91
2017-01-10T20:53:03.447Z,-0.92
2017-01-10T20:54:13.702Z,-0.95
2017-01-10T20:55:23.958Z,-0.94
2017-01-10T20:56:33.016Z,-0.92
2017-01-10T20:57:42.872Z,-0.95
2017-01-10T20:58:53.206Z,-0.98
2017-01-10T21:00:03.109Z,-0.95
2017-01-10T21:01:13.363Z,-0.87
2017-01-10T21:02:23.614Z,-0.91
2017-01-10T21:03:33.969Z,-0.91
2017-01-10T21:04:44.273Z,-0.82
2017-01-10T21:05:54.144Z,-0.77
2017-01-10T21:07:04.055Z,-0.78
2017-01-10T21:08:14.301Z,-0.73
2017-01-10T21:09:24.145Z,-0.77
2017-01-10T21:10:34.084Z,-0.7
2017-01-10T21:11:44.042Z,-0.69
2017-01-10T21:12:54.348Z,-0.78
2017-01-10T21:14:04.620Z,-0.82
2017-01-10T21:15:14.481Z,-0.91
2017-01-10T21:16:24.816Z,-0.78
2017-01-10T21:17:35.148Z,-0.91
2017-01-10T21:18:45.398Z,-0.96
2017-01-10T21:19:55.678Z,-1
2017-01-10T21:21:05.959Z,-1.12
2017-01-10T21:22:16.264Z,-1.07
2017-01-10T21:23:26.536Z,-1.14
2017-01-10T21:24:36.803Z,-1.1
2017-01-10T21:25:47.112Z,-1
2017-01-10T21:26:57.351Z,-1.06
2017-01-10T21:28:07.678Z,-0.95
2017-01-10T21:29:18.013Z,-1
2017-01-10T21:30:28.350Z,-0.95
2017-01-10T21:31:38.208Z,-1.02
2017-01-10T21:32:48.580Z,-1.03
2017-01-10T21:33:58.829Z,-1
2017-01-10T21:35:09.093Z,-0.95
2017-01-10T21:36:19.454Z,-1
2017-01-10T21:37:29.705Z,-0.94
2017-01-10T21:38:39.979Z,-0.95
2017-01-10T21:39:49.935Z,-0.92
2017-01-10T21:41:00.329Z,-0.96
2017-01-10T21:42:10.684Z,-0.92
2017-01-10T21:43:21.002Z,-1
2017-01-10T21:44:31.274Z,-1
2017-01-10T21:45:41.514Z,-0.91
2017-01-10T21:46:51.794Z,-0.92
2017-01-10T21:48:02.063Z,-0.92
2017-01-10T21:49:12.350Z,-0.84
2017-01-10T21:50:22.625Z,-0.84
2017-01-10T21:51:32.468Z,-0.87
2017-01-10T21:52:42.760Z,-0.85
2017-01-10T21:53:53.005Z,-0.98
2017-01-10T21:55:02.503Z,-1.07
2017-01-10T21:56:12.361Z,-1.05
2017-01-10T21:57:22.626Z,-1.07
2017-01-10T21:58:32.887Z,-1.06
2017-01-10T21:59:43.137Z,-1.12
2017-01-10T22:00:53.424Z,-1.1
2017-01-10T22:02:03.263Z,-1.05
2017-01-10T22:03:13.150Z,-0.98
2017-01-10T22:04:22.573Z,-1.07
2017-01-10T22:05:32.489Z,-1.03
2017-01-10T22:06:42.322Z,-1.1
2017-01-10T22:07:51.387Z,-1.1
2017-01-10T22:09:01.246Z,-1.05
2017-01-10T22:10:11.081Z,-1.05
2017-01-10T22:11:21.318Z,-0.95
2017-01-10T22:12:31.609Z,-0.95
2017-01-10T22:13:41.849Z,-1.02
2017-01-10T22:14:52.094Z,-0.96
2017-01-10T22:16:02.530Z,-0.96
2017-01-10T22:17:12.801Z,-0.89
2017-01-10T22:18:23.036Z,-0.91
2017-01-10T22:19:33.287Z,-0.98
2017-01-10T22:20:43.594Z,-0.94
2017-01-10T22:21:53.944Z,-0.95
2017-01-10T22:23:04.200Z,-0.98
2017-01-10T22:24:14.067Z,-0.89
2017-01-10T22:25:24.403Z,-0.89
2017-01-10T22:26:34.634Z,-0.96
2017-01-10T22:27:44.884Z,-1
2017-01-10T22:28:54.722Z,-1.03
2017-01-10T22:30:04.951Z,-0.87
2017-01-10T22:31:15.242Z,-1.05
2017-01-10T22:32:25.649Z,-1
2017-01-10T22:33:35.137Z,-0.88
2017-01-10T22:34:45.381Z,-1.05
2017-01-10T22:35:55.343Z,-1
2017-01-10T22:37:04.912Z,-0.96
2017-01-10T22:38:15.163Z,-0.98
2017-01-10T22:39:25.394Z,-1.02
2017-01-10T22:40:34.823Z,-0.91
2017-01-10T22:41:45.065Z,-0.91
2017-01-10T22:42:54.982Z,-0.78
2017-01-10T22:44:05.268Z,-0.77
2017-01-10T22:45:15.523Z,-0.81
2017-01-10T22:46:25.878Z,-0.88
2017-01-10T22:47:36.134Z,-0.94
2017-01-10T22:48:46.390Z,-0.88
2017-01-10T22:49:56.652Z,-0.87
2017-01-10T22:51:06.501Z,-0.96
2017-01-10T22:52:16.757Z,-0.89
2017-01-10T22:53:27.083Z,-0.88
2017-01-10T22:54:36.946Z,-0.89
2017-01-10T22:55:46.823Z,-0.91
2017-01-10T22:56:56.662Z,-0.87
2017-01-10T22:58:06.915Z,-0.87
2017-01-10T22:59:16.455Z,-0.87
2017-01-10T23:00:26.766Z,-0.76
2017-01-10T23:01:37.078Z,-0.78
2017-01-10T23:02:46.603Z,-0.77
2017-01-10T23:03:56.827Z,-0.76
2017-01-10T23:05:07.061Z,-0.77
2017-01-10T23:06:17.464Z,-0.82
2017-01-10T23:07:27.869Z,-0.88
2017-01-10T23:08:37.719Z,-0.89
2017-01-10T23:09:47.972Z,-0.78
2017-01-10T23:10:58.270Z,-0.87
2017-01-10T23:12:08.167Z,-0.85
2017-01-10T23:13:18.018Z,-0.89
2017-01-10T23:14:28.270Z,-0.87
2017-01-10T23:15:38.519Z,-0.87
2017-01-10T23:16:48.765Z,-0.88
2017-01-10T23:17:59.032Z,-1.02
2017-01-10T23:19:09.285Z,-1
2017-01-10T23:20:19.129Z,-1
2017-01-10T23:21:29.007Z,-0.92
2017-01-10T23:22:39.368Z,-0.96
2017-01-10T23:23:49.269Z,-1.1
2017-01-10T23:24:58.713Z,-1.06
2017-01-10T23:26:09.052Z,-1.1
2017-01-10T23:27:18.474Z,-1
2017-01-10T23:28:28.773Z,-1.07
2017-01-10T23:29:38.603Z,-1.06
2017-01-10T23:30:48.475Z,-1.1
2017-01-10T23:31:58.310Z,-1.16
2017-01-10T23:33:08.563Z,-1.07
2017-01-10T23:34:18.442Z,-1.06
2017-01-10T23:35:28.725Z,-1.07
2017-01-10T23:36:38.795Z,-1.06
2017-01-10T23:37:48.239Z,-1.06
2017-01-10T23:38:58.139Z,-1.09
2017-01-10T23:40:07.992Z,-0.95
2017-01-10T23:41:18.040Z,-0.98
2017-01-10T23:42:28.395Z,-0.95
2017-01-10T23:43:38.235Z,-1
2017-01-10T23:44:48.535Z,-1.12
2017-01-10T23:45:58.367Z,-1.09
2017-01-10T23:47:08.673Z,-1.12
2017-01-10T23:48:18.961Z,-1.05
2017-01-10T23:49:29.187Z,-1
2017-01-10T23:50:39.069Z,-1.05
2017-01-10T23:51:48.490Z,-1.06
2017-01-10T23:52:57.515Z,-1.06
2017-01-10T23:54:07.748Z,-0.94
2017-01-10T23:55:17.591Z,-0.92
2017-01-10T23:56:27.855Z,-0.98
2017-01-10T23:57:38.109Z,-0.88
2017-01-10T23:58:48.350Z,-0.96
2017-01-10T23:59:58.006Z,-0.95
